Time;durP1;ratioP1;P1;durP2;ratioP2;P2;SDS_P1;SDS_P2;PMS_P1;PMS_P2;Temp;Humidity;BMP_temperature;BMP_pressure;BME280_temperature;BME280_humidity;BME280_pressure;Samples;Min_cycle;Max_cycle;Signal;HPM_P1;HPM_P2
2021/10/29 00:02:03;;;;;;;35.55;21.95;;;;;;;12.20;88.49;145254.09;1834955;77;22130;-63
2021/10/29 00:04:58;;;;;;;32.03;19.35;;;;;;;12.22;88.38;145257.87;1834929;77;22129;-61
2021/10/29 00:07:34;;;;;;;32.93;20.95;;;;;;;12.22;88.39;145259.13;1819365;77;27987;-54
2021/10/29 00:10:36;;;;;;;34.38;20.68;;;;;;;12.32;88.32;145284.25;1848072;77;22166;-58
2021/10/29 00:13:12;;;;;;;33.45;21.68;;;;;;;12.31;88.15;145280.45;1853476;77;22550;-59
2021/10/29 00:16:05;;;;;;;33.60;18.37;;;;;;;12.28;88.22;145274.17;1843360;77;22179;-60
2021/10/29 00:18:59;;;;;;;34.92;20.88;;;;;;;12.28;88.16;145274.17;1853439;77;22123;-59
2021/10/29 00:21:34;;;;;;;35.75;21.45;;;;;;;12.26;88.10;145267.89;1834900;77;22144;-57
2021/10/29 00:24:09;;;;;;;33.48;21.73;;;;;;;12.26;88.08;145269.19;1853546;77;22145;-58
2021/10/29 00:26:50;;;;;;;36.40;22.70;;;;;;;12.25;87.92;145266.66;1853596;77;22187;-63
2021/10/29 00:29:44;;;;;;;36.90;21.48;;;;;;;12.22;88.00;145259.13;1834871;77;22124;-61
2021/10/29 00:32:19;;;;;;;39.33;23.50;;;;;;;12.21;88.02;145255.34;1834927;77;22132;-62
2021/10/29 00:35:00;;;;;;;39.30;24.63;;;;;;;12.19;88.13;145250.31;1853580;77;22176;-61
2021/10/29 00:37:39;;;;;;;38.38;23.18;;;;;;;12.16;88.09;145244.03;1834969;77;22128;-58
2021/10/29 00:40:14;;;;;;;33.40;21.37;;;;;;;12.12;88.19;145234.00;1853481;77;22131;-62
2021/10/29 00:42:49;;;;;;;28.95;20.30;;;;;;;12.09;88.29;145226.48;1834969;77;22144;-58
2021/10/29 00:45:24;;;;;;;36.03;22.22;;;;;;;12.06;88.26;145218.91;1835089;77;22132;-61
2021/10/29 00:47:59;;;;;;;32.35;20.75;;;;;;;12.03;88.44;145211.39;1853534;77;22127;-58
2021/10/29 00:50:41;;;;;;;36.83;21.42;;;;;;;12.02;88.47;145210.14;1834064;77;22163;-57
2021/10/29 00:53:16;;;;;;;27.55;18.07;;;;;;;12.00;88.49;145205.11;1834936;77;20215;-60
2021/10/29 00:56:11;;;;;;;24.82;17.05;;;;;;;11.95;88.70;145193.80;1834909;77;22555;-59
2021/10/29 00:58:46;;;;;;;29.23;17.92;;;;;;;11.89;88.91;145178.75;1834936;77;22133;-60
2021/10/29 01:01:21;;;;;;;28.47;19.05;;;;;;;11.86;89.07;145171.23;1819379;77;30908;-55
2021/10/29 01:04:16;;;;;;;30.60;19.00;;;;;;;11.91;89.12;145183.78;1835039;77;22137;-59
2021/10/29 01:07:11;;;;;;;27.98;17.05;;;;;;;11.88;89.13;145174.97;1834846;77;22160;-58
2021/10/29 01:09:46;;;;;;;26.05;17.62;;;;;;;11.82;89.25;145161.12;1837675;77;28008;-59
2021/10/29 01:12:22;;;;;;;26.45;18.90;;;;;;;11.86;89.33;145171.23;1819283;77;28014;-58
2021/10/29 01:15:16;;;;;;;31.82;18.45;;;;;;;11.95;89.23;145193.80;1834860;77;22136;-61
2021/10/29 01:18:10;;;;;;;30.02;19.25;;;;;;;11.94;89.14;145191.31;1834925;77;22599;-59
2021/10/29 01:21:04;;;;;;;27.35;17.90;;;;;;;11.93;89.14;145188.81;1834909;77;22128;-61
2021/10/29 01:23:40;;;;;;;29.48;18.27;;;;;;;11.91;89.22;145183.78;1808334;77;28559;-57
2021/10/29 01:26:17;;;;;;;30.23;19.48;;;;;;;11.95;89.23;145192.56;1819419;77;28422;-61
2021/10/29 01:28:55;;;;;;;28.12;17.55;;;;;;;12.03;89.12;145211.39;1834733;77;22581;-58
2021/10/29 01:31:49;;;;;;;29.02;19.77;;;;;;;12.02;89.05;145208.89;1834816;77;22121;-61
2021/10/29 01:34:25;;;;;;;32.93;20.27;;;;;;;12.00;88.97;145203.86;1834921;77;22554;-62
2021/10/29 01:37:04;;;;;;;29.40;18.40;;;;;;;11.97;88.94;145197.59;1853496;77;22183;-61
2021/10/29 01:39:58;;;;;;;26.52;18.12;;;;;;;11.94;89.00;145191.31;1834970;77;22129;-59
2021/10/29 01:42:51;;;;;;;26.68;17.80;;;;;;;11.92;89.07;145186.28;1834871;77;22160;-59
2021/10/29 01:45:26;;;;;;;30.95;19.65;;;;;;;11.92;89.05;145186.28;1834944;77;22136;-63
2021/10/29 01:48:20;;;;;;;33.05;20.82;;;;;;;11.90;89.05;145180.00;1834948;77;22201;-58
2021/10/29 01:50:55;;;;;;;30.25;19.90;;;;;;;11.86;89.09;145171.23;1853471;77;22582;-58
2021/10/29 01:53:30;;;;;;;34.60;20.77;;;;;;;11.85;89.11;145168.64;1835097;77;22132;-60
2021/10/29 01:56:06;;;;;;;31.55;20.68;;;;;;;11.80;89.11;145156.09;1834928;77;22210;-61
2021/10/29 01:58:41;;;;;;;29.48;20.88;;;;;;;11.74;89.25;145141.03;1837734;77;28420;-63
2021/10/29 02:01:35;;;;;;;34.88;20.50;;;;;;;11.78;89.39;145151.09;1834887;77;22133;-57
2021/10/29 02:04:10;;;;;;;29.48;20.55;;;;;;;11.78;89.40;145151.09;1837776;77;28416;-60
2021/10/29 02:07:04;;;;;;;30.75;19.82;;;;;;;11.85;89.39;145168.64;1834905;77;22128;-58
2021/10/29 02:09:39;;;;;;;29.20;19.60;;;;;;;11.84;89.34;145166.16;1834944;77;22125;-59
2021/10/29 02:12:14;;;;;;;31.27;19.87;;;;;;;11.83;89.30;145163.66;1834954;77;22626;-57
2021/10/29 02:14:49;;;;;;;29.67;20.50;;;;;;;11.82;89.36;145161.12;1837791;77;27974;-57
2021/10/29 02:17:25;;;;;;;28.30;18.45;;;;;;;11.91;89.32;145183.78;1834933;77;22148;-60
2021/10/29 02:20:04;;;;;;;28.45;18.57;;;;;;;11.94;89.15;145190.06;1834899;77;22152;-57
2021/10/29 02:22:37;;;;;;;26.33;17.98;;;;;;;11.94;89.08;145191.31;1853586;77;22175;-59
2021/10/29 02:25:12;;;;;;;30.40;19.90;;;;;;;11.97;89.07;145196.34;1834894;77;22588;-60
2021/10/29 02:27:47;;;;;;;28.85;18.82;;;;;;;11.97;88.94;145196.34;1834976;77;22163;-62
2021/10/29 02:30:23;;;;;;;31.52;22.27;;;;;;;11.95;88.85;145192.56;1837884;77;28021;-61
2021/10/29 02:33:19;;;;;;;30.40;19.00;;;;;;;11.99;88.80;145201.38;1834930;77;22160;-59
2021/10/29 02:35:54;;;;;;;31.42;20.25;;;;;;;11.92;88.79;145185.03;1834951;77;22550;-60
2021/10/29 02:38:29;;;;;;;30.05;22.15;;;;;;;11.86;88.88;145171.23;1819345;77;28427;-62
2021/10/29 02:41:04;;;;;;;29.15;18.85;;;;;;;11.84;88.90;145166.16;1800803;79;22594;-57
2021/10/29 02:43:41;;;;;;;29.05;19.90;;;;;;;11.77;89.16;145147.31;1834915;77;22555;-62
2021/10/29 02:46:20;;;;;;;28.87;19.00;;;;;;;11.71;89.34;145134.77;1853480;77;22197;-63
2021/10/29 02:48:55;;;;;;;29.45;18.98;;;;;;;11.68;89.55;145126.00;1835070;77;22136;-60
2021/10/29 02:51:49;;;;;;;28.65;17.73;;;;;;;11.66;89.86;145120.97;1853477;77;22574;-58
2021/10/29 02:54:24;;;;;;;29.60;19.85;;;;;;;11.63;90.07;145114.69;1834909;77;22130;-59
2021/10/29 02:56:59;;;;;;;29.12;20.27;;;;;;;11.57;90.10;145099.59;1853502;77;22131;-62
2021/10/29 02:59:52;;;;;;;30.12;19.20;;;;;;;11.51;90.29;145085.80;1848245;77;22148;-63
2021/10/29 03:02:28;;;;;;;27.48;19.77;;;;;;;11.46;90.52;145073.25;1819228;77;28433;-63
2021/10/29 03:05:05;;;;;;;24.82;15.93;;;;;;;11.48;90.76;145078.28;1834940;77;22613;-58
2021/10/29 03:07:42;;;;;;;27.62;18.70;;;;;;;11.47;90.96;145074.50;1834852;77;22160;-58
2021/10/29 03:10:37;;;;;;;27.07;18.45;;;;;;;11.40;91.11;145058.20;1834928;77;22140;-56
2021/10/29 03:13:31;;;;;;;27.60;19.85;;;;;;;11.34;91.25;145041.88;1834843;77;22157;-63
2021/10/29 03:16:08;;;;;;;34.53;20.23;;;;;;;11.27;91.37;145025.53;1853467;77;22565;-63
2021/10/29 03:19:02;;;;;;;29.60;19.32;;;;;;;11.22;91.61;145013.00;1853455;77;22578;-58
2021/10/29 03:21:56;;;;;;;30.10;20.30;;;;;;;11.17;91.78;145000.44;1834895;77;22160;-58
2021/10/29 03:24:31;;;;;;;28.73;18.45;;;;;;;11.12;91.98;144987.91;1853638;77;22183;-58
2021/10/29 03:27:06;;;;;;;31.87;19.02;;;;;;;11.05;92.22;144971.62;1834931;77;22124;-63
2021/10/29 03:29:41;;;;;;;26.27;16.48;;;;;;;11.02;92.59;144964.09;1834936;77;22132;-61
2021/10/29 03:32:35;;;;;;;26.30;18.48;;;;;;;11.02;92.80;144965.34;1853404;77;22160;-57
2021/10/29 03:35:29;;;;;;;31.05;20.80;;;;;;;10.99;92.76;144956.53;1853590;77;22144;-64
2021/10/29 03:41:10;;;;;;;33.10;21.35;;;;;;;10.89;92.98;144932.73;1834859;77;22192;-63
2021/10/29 03:47:01;;;;;;;31.50;20.82;;;;;;;10.81;93.09;144913.92;1834919;77;22125;-58
2021/10/29 03:50:03;;;;;;;33.08;21.68;;;;;;;10.78;93.15;144905.11;1853409;77;22694;-59
2021/10/29 03:55:10;;;;;;;36.70;23.05;;;;;;;10.67;93.46;144877.53;1834893;77;22164;-63
2021/10/29 03:57:45;;;;;;;35.13;21.82;;;;;;;10.63;93.54;144870.02;1834958;77;20210;-60
2021/10/29 04:00:25;;;;;;;28.90;19.57;;;;;;;10.62;93.73;144867.47;1843348;78;22160;-64
2021/10/29 04:03:16;;;;;;;31.62;21.05;;;;;;;10.60;93.95;144862.45;1819246;77;28002;-62
2021/10/29 04:05:52;;;;;;;40.52;24.23;;;;;;;10.65;94.20;144873.75;1853483;77;22158;-64
2021/10/29 04:08:27;;;;;;;52.23;29.60;;;;;;;10.64;94.21;144872.50;1834968;77;22223;-59
2021/10/29 04:11:02;;;;;;;32.85;21.57;;;;;;;10.62;94.33;144867.47;1834938;77;22132;-58
2021/10/29 04:13:58;;;;;;;34.85;20.72;;;;;;;10.64;94.48;144872.50;1853464;77;22645;-62
2021/10/29 04:16:37;;;;;;;31.60;20.72;;;;;;;10.63;94.38;144870.02;1835076;77;22136;-56
2021/10/29 04:19:13;;;;;;;37.40;20.97;;;;;;;10.61;94.48;144864.98;1834651;77;22160;-61
2021/10/29 04:21:46;;;;;;;30.88;20.68;;;;;;;10.60;94.65;144861.20;1834997;77;22145;-60
2021/10/29 04:24:28;;;;;;;37.73;22.05;;;;;;;10.58;94.81;144857.47;1824840;77;22618;-56
2021/10/29 04:27:03;;;;;;;56.53;31.68;;;;;;;10.55;94.94;144849.91;1800058;77;28064;-62
2021/10/29 04:29:39;;;;;;;31.80;21.50;;;;;;;10.60;95.08;144861.20;1803500;77;38902;-64
2021/10/29 04:32:40;;;;;;;61.35;30.32;;;;;;;10.70;95.10;144886.28;1834823;77;22220;-59
2021/10/29 04:35:36;;;;;;;50.05;28.35;;;;;;;10.67;95.17;144877.53;1820812;77;22184;-60
2021/10/29 04:38:13;;;;;;;31.65;21.27;;;;;;;10.63;95.26;144868.72;1811780;77;22170;-64
2021/10/29 04:40:50;;;;;;;30.85;19.23;;;;;;;10.61;95.43;144863.75;1820786;77;22606;-61
2021/10/29 04:43:44;;;;;;;32.15;19.90;;;;;;;10.61;95.45;144863.75;1816787;77;22654;-62
2021/10/29 04:46:19;;;;;;;31.20;19.50;;;;;;;10.58;95.52;144857.47;1843265;77;22130;-63
2021/10/29 04:48:55;;;;;;;43.00;30.62;;;;;;;10.57;95.65;144854.94;1819152;77;28108;-62
2021/10/29 04:51:32;;;;;;;38.20;23.70;;;;;;;10.64;95.84;144872.50;1834890;77;22161;-62
2021/10/29 04:54:07;;;;;;;39.33;24.43;;;;;;;10.67;95.73;144878.78;1843341;77;22149;-58
2021/10/29 04:57:01;;;;;;;37.13;22.80;;;;;;;10.65;95.75;144875.00;1825753;77;22218;-62
2021/10/29 04:59:35;;;;;;;33.90;22.35;;;;;;;10.68;95.79;144880.02;1834743;77;22238;-61
2021/10/29 05:02:10;;;;;;;35.75;21.45;;;;;;;10.69;95.78;144882.56;1834911;77;22552;-61
2021/10/29 05:04:51;;;;;;;35.23;22.15;;;;;;;10.75;95.90;144897.59;1823079;77;22192;-59
2021/10/29 05:07:26;;;;;;;35.45;22.07;;;;;;;10.83;95.84;144917.66;1803480;77;22277;-60
2021/10/29 05:10:20;;;;;;;34.95;21.35;;;;;;;10.94;95.71;144945.28;1808008;77;22199;-60
2021/10/29 05:13:01;;;;;;;33.05;22.17;;;;;;;11.00;95.54;144960.31;1826339;77;22191;-58
2021/10/29 05:15:36;;;;;;;36.58;22.82;;;;;;;11.05;95.36;144972.86;1823613;77;22187;-59
2021/10/29 05:18:15;;;;;;;34.08;21.15;;;;;;;11.11;95.14;144985.41;1818217;77;22207;-58
2021/10/29 05:21:07;;;;;;;29.37;21.97;;;;;;;11.17;94.95;145000.44;1801944;77;28151;-65
2021/10/29 05:23:45;;;;;;;33.40;19.70;;;;;;;11.32;94.83;145038.09;1825508;77;22203;-61
2021/10/29 05:26:20;;;;;;;30.05;20.57;;;;;;;11.44;94.46;145066.97;1834894;77;22133;-58
2021/10/29 05:28:55;;;;;;;33.10;21.12;;;;;;;11.51;94.09;145085.80;1834880;77;22626;-59
2021/10/29 05:31:55;;;;;;;33.83;21.90;;;;;;;11.62;93.64;145112.16;1833986;77;22634;-57
2021/10/29 05:34:30;;;;;;;31.60;21.62;;;;;;;11.70;93.36;145130.98;1819258;77;28006;-57
2021/10/29 05:37:24;;;;;;;30.23;20.00;;;;;;;11.84;92.82;145166.16;1853394;77;22132;-59
2021/10/29 05:39:59;;;;;;;29.48;19.73;;;;;;;11.85;92.37;145168.64;1853445;77;22148;-58
2021/10/29 05:42:35;;;;;;;32.42;21.62;;;;;;;11.80;91.88;145156.09;1853435;77;20344;-62
2021/10/29 05:45:35;;;;;;;30.40;20.20;;;;;;;11.76;91.83;145146.08;1833942;77;22188;-59
2021/10/29 05:48:10;;;;;;;30.43;21.48;;;;;;;11.73;91.66;145139.80;1819233;77;27983;-60
2021/10/29 05:51:09;;;;;;;35.63;22.67;;;;;;;11.95;91.38;145192.56;1853328;77;22156;-60
2021/10/29 05:53:54;;;;;;;37.10;23.83;;;;;;;12.60;90.75;145353.33;1834924;77;22148;-61
2021/10/29 05:56:46;;;;;;;49.30;28.27;;;;;;;13.54;88.55;145583.36;1834819;77;22652;-58
2021/10/29 05:59:21;;;;;;;180.97;80.42;;;;;;;14.26;85.73;145759.41;1819219;77;38312;-62
2021/10/29 06:01:57;;;;;;;108.75;48.68;;;;;;;14.84;83.00;145902.89;1834842;77;22188;-60
2021/10/29 06:04:38;;;;;;;212.23;84.32;;;;;;;15.39;80.41;146038.84;1834042;77;22185;-57
2021/10/29 06:07:40;;;;;;;61.18;31.10;;;;;;;16.70;76.15;146360.06;1853353;77;22207;-62
2021/10/29 06:10:40;;;;;;;42.13;25.68;;;;;;;19.28;66.38;146997.23;1853475;77;22187;-64
2021/10/29 06:13:42;;;;;;;30.30;22.13;;;;;;;19.58;65.35;147069.19;1853384;77;22594;-58
2021/10/29 06:16:36;;;;;;;32.70;23.85;;;;;;;20.71;60.90;147348.47;1819295;77;28038;-64
2021/10/29 06:19:30;;;;;;;30.92;22.37;;;;;;;21.51;57.48;147545.75;1834861;77;22575;-61
2021/10/29 06:22:15;;;;;;;41.60;28.65;;;;;;;21.36;56.32;147510.28;1819102;77;28467;-62
2021/10/29 06:24:47;;;;;;;38.73;25.17;;;;;;;20.39;55.93;147271.34;1834923;77;22172;-63
2021/10/29 06:30:40;;;;;;;34.23;24.63;;;;;;;18.50;60.69;146802.81;1833339;77;22633;-61
2021/10/29 06:33:20;;;;;;;34.53;25.00;;;;;;;18.32;61.44;146759.89;1800831;79;22628;-62
2021/10/29 06:36:15;;;;;;;38.80;26.48;;;;;;;18.05;62.19;146691.77;1853439;77;22215;-61
2021/10/29 06:39:10;;;;;;;34.88;24.20;;;;;;;17.92;63.05;146660.23;1834632;77;22631;-62
2021/10/29 06:41:45;;;;;;;30.15;22.27;;;;;;;18.51;62.32;146806.56;1837311;77;28297;-64
2021/10/29 06:44:56;;;;;;;30.92;23.15;;;;;;;19.51;59.55;147054.06;1853388;77;22256;-57
2021/10/29 06:47:47;;;;;;;40.10;26.87;;;;;;;20.03;57.50;147180.41;1832837;77;22246;-61
2021/10/29 07:40:48;;;;;;;19.52;15.28;;;;;;;21.84;51.44;147629.22;1834714;77;22177;-61
2021/10/29 07:46:07;;;;;;;24.20;15.58;;;;;;;23.26;48.96;147979.84;1834696;77;22246;-62
2021/10/29 07:49:06;;;;;;;17.80;13.68;;;;;;;24.03;47.37;148171.11;1834717;77;22179;-62
2021/10/29 07:51:40;;;;;;;19.40;14.63;;;;;;;25.08;45.23;148429.66;1834863;77;22566;-60
2021/10/29 07:54:37;;;;;;;21.97;15.63;;;;;;;25.77;42.96;148602.17;1837729;77;28175;-60
2021/10/29 07:57:31;;;;;;;23.67;15.98;;;;;;;25.77;42.17;148600.86;1835001;77;22267;-61
2021/10/29 08:00:09;;;;;;;26.15;18.98;;;;;;;25.83;42.18;148614.84;1837764;77;28015;-63
2021/10/29 08:03:06;;;;;;;22.35;16.67;;;;;;;25.36;41.80;148498.17;1853575;77;22100;-60
2021/10/29 08:06:01;;;;;;;26.65;20.00;;;;;;;24.20;43.82;148211.67;1819266;77;28004;-61
2021/10/29 08:08:36;;;;;;;27.00;19.25;;;;;;;23.60;45.30;148064.66;1834968;77;22135;-62
2021/10/29 08:11:14;;;;;;;29.05;20.27;;;;;;;22.90;46.41;147891.19;1834984;77;22757;-57
2021/10/29 08:13:47;;;;;;;32.60;21.07;;;;;;;21.95;48.41;147654.50;1835132;77;20215;-60
2021/10/29 08:16:23;;;;;;;29.32;20.65;;;;;;;21.67;49.44;147586.20;1853515;77;22757;-59
2021/10/29 08:22:05;;;;;;;40.48;24.90;;;;;;;21.12;51.03;147449.63;1834720;77;22163;-60
2021/10/29 08:24:59;;;;;;;39.13;26.97;;;;;;;20.14;53.05;147208.17;1819490;77;28024;-62
2021/10/29 08:27:54;;;;;;;37.65;26.12;;;;;;;19.50;55.22;147050.25;1847047;77;22230;-60
2021/10/29 08:30:29;;;;;;;39.70;28.67;;;;;;;19.07;56.26;146944.19;1819397;77;28080;-59
2021/10/29 08:33:23;;;;;;;36.90;27.17;;;;;;;19.06;56.88;146942.94;1834962;77;22156;-58
2021/10/29 08:36:19;;;;;;;37.08;26.15;;;;;;;19.11;57.28;146953.00;1834826;77;22161;-58
2021/10/29 08:38:55;;;;;;;45.12;26.17;;;;;;;19.35;57.03;147013.63;1853497;77;22151;-59
2021/10/29 08:41:49;;;;;;;32.53;24.37;;;;;;;19.52;56.45;147055.31;1834965;77;22140;-57
2021/10/29 08:44:43;;;;;;;34.45;22.98;;;;;;;19.52;56.34;147055.31;1853484;77;22167;-64
2021/10/29 08:47:22;;;;;;;34.83;24.63;;;;;;;19.46;56.44;147040.12;1853500;77;22542;-59
2021/10/29 08:50:18;;;;;;;38.63;23.85;;;;;;;18.75;58.11;146865.95;1834827;77;22147;-58
2021/10/29 08:53:13;;;;;;;31.80;23.07;;;;;;;18.42;59.38;146785.12;1853390;77;22187;-60
2021/10/29 08:55:48;;;;;;;33.85;21.85;;;;;;;18.20;59.94;146730.86;1834969;77;22125;-61
2021/10/29 08:58:23;;;;;;;37.60;23.05;;;;;;;18.06;60.45;146694.27;1834996;77;22151;-59
2021/10/29 09:01:08;;;;;;;37.38;24.23;;;;;;;18.05;60.81;146691.77;1853461;77;22156;-58
2021/10/29 09:04:05;;;;;;;33.42;22.82;;;;;;;17.90;61.13;146656.44;1853466;77;22196;-59
2021/10/29 09:07:09;;;;;;;29.10;22.30;;;;;;;17.72;61.41;146610.98;1834899;77;22136;-60
2021/10/29 09:31:36;;;;;;;27.22;19.75;;;;;;;16.46;66.04;146300.81;1834923;77;22148;-60
2021/10/29 09:34:23;;;;;;;25.92;18.45;;;;;;;16.62;65.75;146339.91;1834863;77;22220;-61
2021/10/29 09:36:59;;;;;;;26.35;17.50;;;;;;;16.72;65.17;146365.12;1835041;77;22121;-60
2021/10/29 09:39:54;;;;;;;29.57;16.80;;;;;;;16.60;64.48;146336.13;1853408;77;22155;-61
2021/10/29 09:42:38;;;;;;;26.90;15.45;;;;;;;16.49;64.79;146308.41;1834955;77;22171;-62
2021/10/29 09:45:18;;;;;;;22.77;16.90;;;;;;;16.56;64.79;146326.02;1834957;77;22206;-62
2021/10/29 09:48:24;;;;;;;18.20;12.60;;;;;;;16.78;64.34;146379.02;1834857;77;22225;-61
2021/10/29 09:51:21;;;;;;;22.30;13.38;;;;;;;16.72;62.22;146365.12;1834866;77;22140;-61
2021/10/29 09:56:55;;;;;;;20.77;15.08;;;;;;;16.28;63.23;146258.03;1819300;77;28004;-62
2021/10/29 09:59:31;;;;;;;19.62;13.03;;;;;;;16.24;63.54;146246.67;1853492;77;22578;-59
2021/10/29 10:02:33;;;;;;;16.02;11.00;;;;;;;16.31;63.58;146263.03;1834068;77;22188;-59
2021/10/29 10:05:10;;;;;;;15.20;9.35;;;;;;;16.32;63.19;146265.56;1834955;77;22209;-58
2021/10/29 10:07:47;;;;;;;10.93;7.62;;;;;;;16.20;62.60;146237.83;1834811;77;22128;-58
2021/10/29 10:10:22;;;;;;;13.40;8.30;;;;;;;16.03;62.70;146195.05;1834940;77;22132;-59
2021/10/29 10:13:19;;;;;;;15.40;10.40;;;;;;;16.08;62.45;146206.34;1853464;77;22156;-59
2021/10/29 10:16:16;;;;;;;18.87;11.57;;;;;;;16.21;62.66;146240.38;1853330;77;22131;-58
2021/10/29 10:18:54;;;;;;;16.12;10.90;;;;;;;16.37;62.22;146278.17;1834935;77;22125;-61
2021/10/29 10:21:53;;;;;;;14.47;11.28;;;;;;;16.51;61.98;146313.42;1819357;77;27997;-60
2021/10/29 10:24:54;;;;;;;16.27;11.55;;;;;;;16.74;61.41;146368.88;1819371;77;38744;-57
2021/10/29 10:30:50;;;;;;;15.70;8.88;;;;;;;16.89;59.54;146408.03;1837716;77;28434;-57
2021/10/29 10:43:07;;;;;;;9.70;6.53;;;;;;;17.21;57.54;146484.91;1834102;77;22167;-59
2021/10/29 10:46:06;;;;;;;10.45;6.33;;;;;;;16.81;57.21;146386.56;1834945;77;22129;-61
2021/10/29 10:51:46;;;;;;;13.25;6.83;;;;;;;16.65;57.77;146348.72;1834963;77;22543;-60
2021/10/29 10:54:49;;;;;;;10.00;6.80;;;;;;;16.45;58.50;146299.56;1853484;77;22225;-60
2021/10/29 10:57:52;;;;;;;10.80;6.80;;;;;;;16.25;58.11;146250.42;1819222;77;28441;-60
2021/10/29 11:00:55;;;;;;;11.40;6.17;;;;;;;16.13;58.46;146220.23;1853538;77;22140;-61
2021/10/29 11:09:53;;;;;;;12.20;6.75;;;;;;;16.03;59.05;146196.28;1819364;77;27979;-58
2021/10/29 11:10:28;;;;;;;14.00;6.03;;;;;;;16.18;58.97;146232.83;1834983;77;22246;-59
2021/10/29 11:13:08;;;;;;;15.43;8.40;;;;;;;16.20;58.94;146236.58;1834960;77;22233;-56
2021/10/29 11:16:05;;;;;;;12.58;7.70;;;;;;;16.23;59.63;146244.13;1853424;77;22135;-59
2021/10/29 11:19:17;;;;;;;11.90;7.20;;;;;;;16.37;59.77;146278.17;1853406;77;22155;-62
2021/10/29 11:21:55;;;;;;;13.50;8.18;;;;;;;16.50;59.15;146312.17;1834936;77;22580;-58
2021/10/29 11:24:40;;;;;;;9.93;6.37;;;;;;;16.58;58.90;146331.06;1834816;77;22160;-60
2021/10/29 11:27:22;;;;;;;12.05;7.92;;;;;;;16.73;58.72;146367.63;1853464;77;22123;-61
2021/10/29 11:30:19;;;;;;;12.50;7.62;;;;;;;16.85;57.60;146396.67;1834272;77;22696;-60
2021/10/29 11:33:15;;;;;;;14.33;7.75;;;;;;;16.90;57.75;146409.28;1834799;77;22120;-62
2021/10/29 11:35:58;;;;;;;16.07;8.00;;;;;;;16.82;57.64;146389.13;1834911;77;22207;-61
2021/10/29 11:38:37;;;;;;;14.38;7.62;;;;;;;16.81;57.74;146386.56;1835030;77;22152;-60
2021/10/29 11:41:34;;;;;;;10.78;7.17;;;;;;;16.88;57.73;146404.22;1834934;77;22133;-63
2021/10/29 11:44:28;;;;;;;15.98;7.83;;;;;;;17.00;57.37;146433.23;1834976;77;22152;-63
2021/10/29 11:47:06;;;;;;;14.73;7.08;;;;;;;17.02;57.17;146439.53;1853564;77;22594;-63
2021/10/29 11:49:39;;;;;;;13.25;7.40;;;;;;;16.91;57.90;146411.78;1853489;77;20455;-60
2021/10/29 11:52:14;;;;;;;11.90;7.78;;;;;;;16.96;57.50;146424.38;1835044;77;22144;-60
2021/10/29 11:54:51;;;;;;;13.18;7.55;;;;;;;17.01;57.35;146436.98;1834872;77;20099;-63
2021/10/29 11:57:44;;;;;;;14.93;9.00;;;;;;;17.07;57.22;146450.84;1834804;77;22155;-60
2021/10/29 12:09:31;;;;;;;16.95;10.05;;;;;;;16.89;57.92;146406.72;1834938;77;22136;-63
2021/10/29 12:12:13;;;;;;;17.62;9.75;;;;;;;16.99;57.93;146431.94;1853502;77;22128;-59
2021/10/29 12:15:15;;;;;;;14.87;10.32;;;;;;;17.02;57.80;146439.53;1837788;77;28000;-60
2021/10/29 12:18:11;;;;;;;17.15;9.80;;;;;;;16.75;58.04;146371.42;1834765;77;22195;-62
2021/10/29 12:21:07;;;;;;;16.95;10.03;;;;;;;16.81;58.31;146386.56;1853492;77;22135;-63
2021/10/29 12:24:05;;;;;;;15.70;9.68;;;;;;;16.60;58.72;146334.88;1834963;77;22152;-61
2021/10/29 12:26:39;;;;;;;14.33;9.40;;;;;;;16.64;58.72;146344.97;1834897;77;22124;-63
2021/10/29 12:29:34;;;;;;;19.57;9.90;;;;;;;16.49;58.50;146308.41;1853495;77;22128;-62
2021/10/29 12:51:52;;;;;;;21.73;10.72;;;;;;;17.25;57.11;146494.97;1800694;79;22144;-61
2021/10/29 12:53:44;;;;;;;15.98;10.13;;;;;;;17.83;56.13;146637.50;1853435;77;22151;-61
2021/10/29 13:02:28;;;;;;;15.28;10.95;;;;;;;18.08;54.50;146699.33;1834870;77;22160;-62
2021/10/29 13:05:22;;;;;;;16.25;10.65;;;;;;;18.12;54.60;146710.69;1843243;78;22152;-60
2021/10/29 13:07:58;;;;;;;18.45;10.15;;;;;;;18.26;54.39;146744.73;1834775;77;22147;-62
2021/10/29 13:10:40;;;;;;;18.12;11.15;;;;;;;18.24;53.17;146739.67;1834720;77;22603;-61
2021/10/29 13:13:30;;;;;;;14.98;9.73;;;;;;;17.97;53.65;146672.84;1834680;77;22563;-63
2021/10/29 13:16:15;;;;;;;17.70;11.30;;;;;;;17.97;53.91;146674.09;1837740;77;27999;-61
2021/10/29 13:19:07;;;;;;;16.82;10.32;;;;;;;18.17;53.64;146722.05;1853454;77;22143;-59
2021/10/29 13:27:36;;;;;;;17.17;10.65;;;;;;;18.50;52.41;146802.81;1853435;77;22160;-60
2021/10/29 13:54:41;;;;;;;13.65;9.63;;;;;;;17.31;54.77;146510.12;1834966;77;22551;-60
2021/10/29 13:57:24;;;;;;;12.63;7.80;;;;;;;17.35;54.56;146521.47;1834889;77;22550;-61
2021/10/29 14:29:12;;;;;;;12.93;8.20;;;;;;;15.40;58.40;146040.09;1826299;77;22183;-57
2021/10/29 14:32:21;;;;;;;11.50;7.62;;;;;;;15.22;59.08;145994.78;1818040;77;22196;-55
2021/10/29 14:35:02;;;;;;;15.65;9.85;;;;;;;15.06;59.75;145957.03;1801390;77;28519;-58
2021/10/29 14:38:03;;;;;;;14.00;9.78;;;;;;;14.96;60.02;145933.09;1802374;77;22190;-59
2021/10/29 14:40:41;;;;;;;15.58;9.30;;;;;;;14.85;60.52;145905.39;1820003;77;22199;-58
2021/10/29 14:49:45;;;;;;;24.12;11.38;;;;;;;14.57;61.78;145834.94;1828110;77;22219;-59
2021/10/29 15:07:22;;;;;;;21.30;11.90;;;;;;;14.06;66.94;145710.34;1827307;77;22195;-57
2021/10/29 15:25:29;;;;;;;32.23;18.90;;;;;;;13.67;69.32;145614.80;1809913;77;22183;-62
2021/10/29 15:30:55;;;;;;;32.85;17.95;;;;;;;13.57;69.85;145589.66;1834771;77;22132;-63
2021/10/29 15:45:10;;;;;;;27.82;14.75;;;;;;;13.44;70.78;145559.47;1834630;77;22325;-63
2021/10/29 15:50:32;;;;;;;22.13;13.20;;;;;;;13.41;71.12;145551.94;1834618;77;22187;-58
2021/10/29 15:53:27;;;;;;;20.52;10.80;;;;;;;13.39;71.09;145545.66;1833937;77;22164;-62
2021/10/29 16:01:59;;;;;;;18.20;11.97;;;;;;;13.33;71.08;145531.83;1815931;77;22319;-63
2021/10/29 16:19:34;;;;;;;29.00;19.05;;;;;;;13.22;71.81;145505.36;1853778;77;22203;-63
2021/10/29 16:22:34;;;;;;;30.43;18.17;;;;;;;13.21;71.85;145501.61;1834894;77;22160;-61
2021/10/29 16:25:32;;;;;;;29.37;20.10;;;;;;;13.17;71.88;145492.78;1863360;75;28192;-63
2021/10/29 16:28:10;;;;;;;31.90;19.62;;;;;;;13.17;71.39;145492.78;1834868;77;22169;-61
2021/10/29 16:30:42;;;;;;;32.17;19.17;;;;;;;13.16;71.28;145490.28;1834814;77;22164;-61
2021/10/29 16:33:28;;;;;;;28.00;19.48;;;;;;;13.15;71.03;145486.50;1834539;77;22172;-59
2021/10/29 16:36:05;;;;;;;29.92;19.57;;;;;;;13.14;71.26;145485.25;1834888;77;22156;-56
2021/10/29 16:39:00;;;;;;;30.17;20.62;;;;;;;13.09;70.94;145471.44;1844591;77;22675;-61
2021/10/29 16:41:42;;;;;;;38.23;21.42;;;;;;;12.99;71.07;145447.56;1821239;77;22267;-60
2021/10/29 16:44:16;;;;;;;35.73;21.37;;;;;;;12.92;71.29;145429.95;1808101;77;28156;-59
2021/10/29 16:47:11;;;;;;;37.23;21.50;;;;;;;12.92;71.58;145429.95;1820529;77;22167;-61
2021/10/29 16:49:47;;;;;;;34.70;21.80;;;;;;;12.89;71.50;145422.42;1834567;77;20290;-59
2021/10/29 16:52:21;;;;;;;45.33;29.20;;;;;;;12.90;71.73;145424.92;1829064;77;28119;-59
2021/10/29 16:55:16;;;;;;;63.48;33.73;;;;;;;12.91;72.29;145428.70;1822503;77;22172;-56
2021/10/29 16:57:51;;;;;;;61.83;33.70;;;;;;;12.77;74.21;145393.50;1826669;77;28070;-60
2021/10/29 17:00:46;;;;;;;54.55;30.25;;;;;;;12.59;76.25;145349.53;1818225;77;22175;-57
2021/10/29 17:03:20;;;;;;;50.63;29.57;;;;;;;12.38;77.53;145299.30;1820669;77;22144;-59
2021/10/29 17:06:14;;;;;;;63.15;33.25;;;;;;;12.23;78.66;145260.38;1820416;77;22167;-54
2021/10/29 17:08:49;;;;;;;59.65;30.57;;;;;;;12.07;80.01;145221.45;1831046;77;22192;-61